Time;durP1;ratioP1;P1;durP2;ratioP2;P2;SDS_P1;SDS_P2;PMS_P1;PMS_P2;Temp;Humidity;BMP_temperature;BMP_pressure;BME280_temperature;BME280_humidity;BME280_pressure;Samples;Min_cycle;Max_cycle;Signal;HPM_P1;HPM_P2
2023/06/25 00:00:29;;;;;;;;;;;20.90;73.00;;;;;;4984333;28;1339;-68
2023/06/25 00:02:54;;;;;;;;;;;20.90;72.20;;;;;;4985277;28;1960;-68
2023/06/25 00:05:20;;;;;;;;;;;20.90;72.20;;;;;;4989238;28;845;-68
2023/06/25 00:07:46;;;;;;;;;;;20.90;72.30;;;;;;4983727;28;1661;-68
2023/06/25 00:10:11;;;;;;;;;;;20.90;72.20;;;;;;4983398;28;1257;-67
2023/06/25 00:12:36;;;;;;;;;;;20.90;72.30;;;;;;4983356;28;908;-68
2023/06/25 00:15:02;;;;;;;;;;;20.90;72.20;;;;;;4987126;28;882;-67
2023/06/25 00:17:28;;;;;;;;;;;20.90;72.30;;;;;;4984922;28;893;-68
2023/06/25 00:19:53;;;;;;;;;;;20.90;72.30;;;;;;4984185;28;1274;-67
2023/06/25 00:22:19;;;;;;;;;;;20.90;72.30;;;;;;4985432;28;1911;-68
2023/06/25 00:24:44;;;;;;;;;;;20.90;72.30;;;;;;4986051;28;1288;-68
2023/06/25 00:27:10;;;;;;;;;;;20.90;72.30;;;;;;4985835;28;1157;-67
2023/06/25 00:29:35;;;;;;;;;;;20.90;72.30;;;;;;4984749;28;1268;-68
2023/06/25 00:32:01;;;;;;;;;;;20.90;72.30;;;;;;4989667;28;916;-68
2023/06/25 00:34:26;;;;;;;;;;;20.90;72.30;;;;;;4988379;28;820;-68
2023/06/25 00:36:52;;;;;;;;;;;20.90;72.30;;;;;;4986772;28;1087;-68
2023/06/25 00:39:18;;;;;;;;;;;20.90;72.30;;;;;;4980325;28;1400;-67
2023/06/25 00:41:43;;;;;;;;;;;20.90;72.30;;;;;;4986533;28;834;-67
2023/06/25 00:44:09;;;;;;;;;;;20.90;72.30;;;;;;4984223;28;1906;-68
2023/06/25 00:46:34;;;;;;;;;;;20.90;72.30;;;;;;4982740;28;792;-68
2023/06/25 00:49:05;;;;;;;;;;;20.90;72.30;;;;;;4980617;28;1272;-68
2023/06/25 00:51:31;;;;;;;;;;;20.90;72.40;;;;;;4979448;28;888;-68
2023/06/25 00:53:56;;;;;;;;;;;20.90;72.30;;;;;;4986594;28;811;-68
2023/06/25 00:56:27;;;;;;;;;;;20.90;72.30;;;;;;4981359;28;895;-68
2023/06/25 00:58:54;;;;;;;;;;;20.90;72.30;;;;;;4986460;28;1284;-68
2023/06/25 01:01:21;;;;;;;;;;;20.90;72.40;;;;;;4985269;28;837;-67
2023/06/25 01:03:54;;;;;;;;;;;20.90;72.30;;;;;;4988819;28;1926;-68
2023/06/25 01:06:29;;;;;;;;;;;20.90;72.40;;;;;;4985922;28;828;-68
2023/06/25 01:08:54;;;;;;;;;;;20.90;72.40;;;;;;4983281;28;1380;-68
2023/06/25 01:11:20;;;;;;;;;;;20.90;72.30;;;;;;4988103;28;878;-68
2023/06/25 01:13:45;;;;;;;;;;;20.90;72.40;;;;;;4979275;28;862;-67
2023/06/25 01:16:11;;;;;;;;;;;20.90;72.40;;;;;;4981892;28;922;-68
2023/06/25 01:18:39;;;;;;;;;;;20.90;72.40;;;;;;4980986;28;1267;-68
2023/06/25 01:21:05;;;;;;;;;;;20.90;72.40;;;;;;4982465;28;792;-68
2023/06/25 01:23:31;;;;;;;;;;;20.90;72.40;;;;;;4981792;28;1938;-67
2023/06/25 01:25:56;;;;;;;;;;;20.90;72.40;;;;;;4982724;28;1000;-67
2023/06/25 01:28:22;;;;;;;;;;;20.90;72.40;;;;;;4982464;28;1461;-68
2023/06/25 01:30:48;;;;;;;;;;;20.90;72.40;;;;;;4983017;28;949;-67
2023/06/25 01:33:15;;;;;;;;;;;20.90;72.40;;;;;;4980237;28;928;-67
2023/06/25 01:35:41;;;;;;;;;;;20.90;72.40;;;;;;4982251;28;958;-67
2023/06/25 01:38:07;;;;;;;;;;;20.90;72.40;;;;;;4981202;28;1153;-67
2023/06/25 01:40:32;;;;;;;;;;;20.90;72.40;;;;;;4983597;28;1299;-67
2023/06/25 01:42:58;;;;;;;;;;;20.90;72.40;;;;;;4983851;28;1961;-68
2023/06/25 01:45:23;;;;;;;;;;;20.90;72.40;;;;;;4986438;28;930;-68
2023/06/25 01:47:49;;;;;;;;;;;20.90;72.40;;;;;;4983429;28;1053;-68
2023/06/25 01:50:14;;;;;;;;;;;20.90;72.40;;;;;;4983114;28;1224;-67
2023/06/25 01:52:40;;;;;;;;;;;20.90;72.50;;;;;;4981494;28;912;-68
2023/06/25 01:55:05;;;;;;;;;;;20.90;72.50;;;;;;4982962;28;856;-68
2023/06/25 01:57:31;;;;;;;;;;;20.90;72.50;;;;;;4983888;28;1261;-68
2023/06/25 01:59:56;;;;;;;;;;;20.90;72.50;;;;;;4980990;28;1348;-68
2023/06/25 02:02:22;;;;;;;;;;;20.90;72.50;;;;;;4980708;28;1890;-68
2023/06/25 02:04:47;;;;;;;;;;;20.90;72.50;;;;;;4983883;28;990;-68
2023/06/25 02:07:13;;;;;;;;;;;20.90;72.50;;;;;;4984487;28;909;-67
2023/06/25 02:09:38;;;;;;;;;;;20.90;72.50;;;;;;4984792;28;1246;-67
2023/06/25 02:12:04;;;;;;;;;;;20.90;72.50;;;;;;4984563;28;998;-68
2023/06/25 02:14:32;;;;;;;;;;;20.90;72.50;;;;;;4986327;28;818;-68
2023/06/25 02:16:58;;;;;;;;;;;20.90;72.50;;;;;;4987296;28;1610;-67
2023/06/25 02:19:23;;;;;;;;;;;20.90;72.50;;;;;;4983403;28;1213;-66
2023/06/25 02:21:49;;;;;;;;;;;20.90;72.60;;;;;;4986370;28;836;-67
2023/06/25 02:24:14;;;;;;;;;;;20.90;72.50;;;;;;4983340;28;1956;-68
2023/06/25 02:26:40;;;;;;;;;;;20.90;72.80;;;;;;4985110;28;1364;-68
2023/06/25 02:29:06;;;;;;;;;;;20.90;72.60;;;;;;4998719;28;1333;-68
2023/06/25 02:31:31;;;;;;;;;;;20.90;72.60;;;;;;4985758;28;1328;-68
2023/06/25 02:33:57;;;;;;;;;;;20.90;72.60;;;;;;4982481;28;1319;-69
2023/06/25 02:36:22;;;;;;;;;;;20.90;72.60;;;;;;4988116;28;1302;-69
2023/06/25 02:38:48;;;;;;;;;;;20.90;72.60;;;;;;4985685;28;1381;-67
2023/06/25 02:41:13;;;;;;;;;;;20.90;72.60;;;;;;4985797;28;823;-68
2023/06/25 02:43:39;;;;;;;;;;;20.90;72.60;;;;;;4989381;28;1890;-67
2023/06/25 02:46:04;;;;;;;;;;;20.90;72.60;;;;;;4992361;28;1018;-67
2023/06/25 02:48:30;;;;;;;;;;;20.90;72.60;;;;;;4982696;28;1283;-68
2023/06/25 02:50:55;;;;;;;;;;;20.90;72.60;;;;;;4988149;28;915;-68
2023/06/25 02:53:20;;;;;;;;;;;20.90;72.60;;;;;;4986139;28;1081;-67
2023/06/25 02:55:46;;;;;;;;;;;20.90;72.70;;;;;;4991917;28;844;-67
2023/06/25 02:58:11;;;;;;;;;;;20.90;72.70;;;;;;4987559;28;1006;-67
2023/06/25 03:00:37;;;;;;;;;;;20.90;72.70;;;;;;4984525;28;1200;-67
2023/06/25 03:03:02;;;;;;;;;;;20.90;72.70;;;;;;4988466;28;1895;-67
2023/06/25 03:05:28;;;;;;;;;;;20.90;72.70;;;;;;4987837;28;847;-68
2023/06/25 03:07:57;;;;;;;;;;;20.90;72.70;;;;;;4981175;28;892;-67
2023/06/25 03:10:23;;;;;;;;;;;20.90;72.70;;;;;;4987213;28;1266;-68
2023/06/25 03:12:48;;;;;;;;;;;20.90;72.70;;;;;;4986576;28;951;-67
2023/06/25 03:15:14;;;;;;;;;;;20.90;72.70;;;;;;4984376;28;979;-68
2023/06/25 03:17:39;;;;;;;;;;;20.90;72.70;;;;;;4984535;28;833;-68
2023/06/25 03:20:05;;;;;;;;;;;20.90;72.70;;;;;;4990642;28;1275;-68
2023/06/25 03:22:31;;;;;;;;;;;20.90;72.80;;;;;;4987082;28;1920;-68
2023/06/25 03:24:56;;;;;;;;;;;20.90;72.80;;;;;;4982436;28;1025;-68
2023/06/25 03:27:22;;;;;;;;;;;20.90;72.70;;;;;;4985457;28;1351;-68
2023/06/25 03:29:47;;;;;;;;;;;20.90;72.80;;;;;;4985083;28;1261;-68
2023/06/25 03:32:13;;;;;;;;;;;20.90;72.80;;;;;;4984566;28;919;-67
2023/06/25 03:34:38;;;;;;;;;;;20.90;72.80;;;;;;4986753;28;924;-67
2023/06/25 03:37:04;;;;;;;;;;;20.90;72.80;;;;;;4985451;28;789;-67
2023/06/25 03:39:29;;;;;;;;;;;20.90;72.80;;;;;;4982684;28;1493;-68
2023/06/25 03:41:55;;;;;;;;;;;20.90;72.80;;;;;;4987999;28;871;-67
2023/06/25 03:44:20;;;;;;;;;;;20.90;72.80;;;;;;4985437;28;879;-68
2023/06/25 03:46:46;;;;;;;;;;;20.90;72.80;;;;;;4983058;28;789;-68
2023/06/25 03:49:11;;;;;;;;;;;20.90;72.80;;;;;;4984861;28;1266;-67
2023/06/25 03:51:36;;;;;;;;;;;20.90;72.80;;;;;;4984734;28;1073;-68
2023/06/25 03:54:02;;;;;;;;;;;20.90;73.50;;;;;;4984674;28;1263;-68
2023/06/25 03:56:27;;;;;;;;;;;20.90;72.80;;;;;;4984780;28;860;-68
2023/06/25 03:58:53;;;;;;;;;;;20.90;72.90;;;;;;4989386;28;1265;-68
2023/06/25 04:01:18;;;;;;;;;;;20.90;72.80;;;;;;4985678;28;818;-68
2023/06/25 04:03:44;;;;;;;;;;;20.90;72.80;;;;;;4984368;28;1898;-68
2023/06/25 04:06:09;;;;;;;;;;;20.90;73.60;;;;;;4987132;28;1613;-67
2023/06/25 04:08:35;;;;;;;;;;;20.90;72.90;;;;;;4986030;28;1291;-67
2023/06/25 04:11:00;;;;;;;;;;;20.90;72.90;;;;;;4989088;28;1515;-68
2023/06/25 04:13:25;;;;;;;;;;;20.90;72.80;;;;;;4987719;28;785;-68
2023/06/25 04:15:51;;;;;;;;;;;20.90;72.90;;;;;;4981000;28;888;-68
2023/06/25 04:18:16;;;;;;;;;;;20.90;72.90;;;;;;4986802;28;1319;-68
2023/06/25 04:20:42;;;;;;;;;;;20.90;72.90;;;;;;4987771;28;1194;-68
2023/06/25 04:23:07;;;;;;;;;;;20.90;72.90;;;;;;4983909;28;1946;-68
2023/06/25 04:25:33;;;;;;;;;;;20.80;72.80;;;;;;4985036;28;734;-69
2023/06/25 04:27:58;;;;;;;;;;;20.80;72.80;;;;;;4985699;28;1333;-68
2023/06/25 04:30:24;;;;;;;;;;;20.90;72.90;;;;;;4981714;28;1242;-68
2023/06/25 04:32:49;;;;;;;;;;;20.90;72.90;;;;;;4984652;28;904;-67
2023/06/25 04:35:18;;;;;;;;;;;20.90;72.90;;;;;;4990028;28;873;-68
2023/06/25 04:37:43;;;;;;;;;;;20.90;72.90;;;;;;4981333;28;903;-68
2023/06/25 04:40:09;;;;;;;;;;;20.90;72.90;;;;;;4988610;28;1340;-68
2023/06/25 04:42:34;;;;;;;;;;;20.90;73.00;;;;;;4991021;28;1950;-68
2023/06/25 04:45:00;;;;;;;;;;;20.90;73.00;;;;;;4984414;28;880;-68
2023/06/25 04:47:25;;;;;;;;;;;20.90;72.90;;;;;;4985645;28;1061;-67
2023/06/25 04:49:51;;;;;;;;;;;20.80;72.90;;;;;;4983945;28;1267;-67
2023/06/25 04:52:19;;;;;;;;;;;20.90;72.90;;;;;;4980995;28;874;-67
2023/06/25 04:54:45;;;;;;;;;;;20.90;73.00;;;;;;4984764;28;824;-67
2023/06/25 04:57:10;;;;;;;;;;;20.80;72.90;;;;;;4980168;28;958;-68
2023/06/25 04:59:35;;;;;;;;;;;20.90;73.00;;;;;;4983787;28;1261;-68
2023/06/25 05:02:01;;;;;;;;;;;20.90;73.00;;;;;;4983185;28;1958;-67
2023/06/25 05:04:26;;;;;;;;;;;20.80;72.90;;;;;;4981273;28;920;-67
2023/06/25 05:06:52;;;;;;;;;;;20.90;73.00;;;;;;4981263;28;848;-67
2023/06/25 05:09:17;;;;;;;;;;;20.90;73.00;;;;;;4985398;28;1252;-67
2023/06/25 05:11:43;;;;;;;;;;;20.90;73.00;;;;;;4980882;28;954;-68
2023/06/25 05:14:08;;;;;;;;;;;20.90;73.00;;;;;;4986213;28;1002;-68
2023/06/25 05:16:34;;;;;;;;;;;20.90;73.00;;;;;;4983082;28;840;-67
2023/06/25 05:18:59;;;;;;;;;;;20.90;73.00;;;;;;4983431;28;1679;-67
2023/06/25 05:21:24;;;;;;;;;;;20.90;73.00;;;;;;4984278;28;855;-68
2023/06/25 05:23:57;;;;;;;;;;;20.90;73.70;;;;;;4985204;28;1899;-68
2023/06/25 05:26:23;;;;;;;;;;;20.90;73.00;;;;;;4988805;28;876;-67
2023/06/25 05:28:48;;;;;;;;;;;20.90;73.00;;;;;;4984450;28;1431;-67
2023/06/25 05:31:14;;;;;;;;;;;20.90;73.00;;;;;;4983178;28;1220;-67
2023/06/25 05:33:39;;;;;;;;;;;20.90;73.00;;;;;;4983467;28;872;-68
2023/06/25 05:36:05;;;;;;;;;;;20.90;73.10;;;;;;4989068;28;933;-67
2023/06/25 05:38:30;;;;;;;;;;;20.80;73.00;;;;;;4980407;28;1365;-67
2023/06/25 05:40:55;;;;;;;;;;;20.80;73.00;;;;;;4984182;28;927;-67
2023/06/25 05:43:21;;;;;;;;;;;20.90;73.80;;;;;;4984801;28;1930;-68
2023/06/25 05:45:46;;;;;;;;;;;20.80;73.00;;;;;;4985602;28;1018;-68
2023/06/25 05:48:12;;;;;;;;;;;20.80;73.00;;;;;;4981010;28;902;-68
2023/06/25 05:50:37;;;;;;;;;;;20.90;73.10;;;;;;4987079;28;1216;-68
2023/06/25 05:53:03;;;;;;;;;;;20.90;73.10;;;;;;4979183;28;875;-68
2023/06/25 05:55:28;;;;;;;;;;;20.80;73.00;;;;;;4986007;28;1014;-68
2023/06/25 05:57:54;;;;;;;;;;;20.90;73.10;;;;;;4983050;28;856;-68
2023/06/25 06:00:21;;;;;;;;;;;20.80;73.00;;;;;;4981728;28;1315;-68
2023/06/25 06:02:46;;;;;;;;;;;20.80;73.00;;;;;;4985367;28;1895;-67
2023/06/25 06:05:12;;;;;;;;;;;20.90;73.10;;;;;;4989447;28;1216;-68
2023/06/25 06:07:37;;;;;;;;;;;20.90;73.10;;;;;;4979532;28;771;-68
2023/06/25 06:10:03;;;;;;;;;;;20.90;73.10;;;;;;4986728;28;1350;-68
2023/06/25 06:12:29;;;;;;;;;;;20.80;73.10;;;;;;4983399;28;920;-68
2023/06/25 06:14:55;;;;;;;;;;;20.80;73.00;;;;;;4985145;28;776;-68
2023/06/25 06:17:20;;;;;;;;;;;20.90;73.10;;;;;;4983865;28;842;-68
2023/06/25 06:19:46;;;;;;;;;;;20.80;73.10;;;;;;4989546;28;1255;-67
2023/06/25 06:22:13;;;;;;;;;;;20.90;73.90;;;;;;4986900;28;1947;-68
2023/06/25 06:24:38;;;;;;;;;;;20.90;73.10;;;;;;4988983;28;1335;-68
2023/06/25 06:27:04;;;;;;;;;;;20.90;73.10;;;;;;4985926;28;1540;-68
2023/06/25 06:29:30;;;;;;;;;;;20.80;73.10;;;;;;4990318;28;1267;-68
2023/06/25 06:31:55;;;;;;;;;;;20.90;73.10;;;;;;4992205;28;812;-67
2023/06/25 06:34:21;;;;;;;;;;;20.80;73.10;;;;;;4986514;28;864;-68
2023/06/25 06:36:46;;;;;;;;;;;20.90;73.90;;;;;;4986862;28;801;-68
2023/06/25 06:39:13;;;;;;;;;;;20.90;73.20;;;;;;4987914;28;1378;-68
2023/06/25 06:41:38;;;;;;;;;;;20.90;73.10;;;;;;4989160;28;1226;-67
2023/06/25 06:44:10;;;;;;;;;;;20.80;73.10;;;;;;4988988;28;1962;-67
2023/06/25 06:46:36;;;;;;;;;;;20.80;73.10;;;;;;4983107;28;1174;-67
2023/06/25 06:49:01;;;;;;;;;;;20.80;73.10;;;;;;4982669;28;1283;-68
2023/06/25 06:51:27;;;;;;;;;;;20.80;73.10;;;;;;4987828;28;900;-68
2023/06/25 06:53:52;;;;;;;;;;;20.80;73.10;;;;;;4984425;28;895;-68
2023/06/25 06:56:17;;;;;;;;;;;20.80;73.10;;;;;;4988318;28;1283;-67
2023/06/25 06:58:43;;;;;;;;;;;20.80;73.10;;;;;;4989541;28;1257;-68
2023/06/25 07:01:09;;;;;;;;;;;20.80;73.10;;;;;;4991222;28;842;-68
2023/06/25 07:03:34;;;;;;;;;;;20.80;73.10;;;;;;4987358;28;1902;-67
2023/06/25 07:05:59;;;;;;;;;;;20.80;73.10;;;;;;4983705;28;860;-68
2023/06/25 07:08:25;;;;;;;;;;;20.80;73.10;;;;;;4983676;28;1244;-67
2023/06/25 07:10:50;;;;;;;;;;;20.80;73.10;;;;;;4990166;28;825;-68
2023/06/25 07:13:16;;;;;;;;;;;20.80;73.10;;;;;;4981611;28;849;-68
2023/06/25 07:15:41;;;;;;;;;;;20.80;73.10;;;;;;4986192;28;1630;-68
2023/06/25 07:18:07;;;;;;;;;;;20.80;73.10;;;;;;4986160;28;982;-67
2023/06/25 07:20:32;;;;;;;;;;;20.90;73.10;;;;;;4986198;28;1350;-69
2023/06/25 07:22:58;;;;;;;;;;;20.80;73.10;;;;;;4984339;28;2349;-68
2023/06/25 07:25:23;;;;;;;;;;;20.80;73.10;;;;;;4987207;28;865;-69
2023/06/25 07:27:49;;;;;;;;;;;20.80;73.10;;;;;;4982982;28;972;-68
2023/06/25 07:30:14;;;;;;;;;;;20.80;73.10;;;;;;4979881;28;1366;-68
2023/06/25 07:32:39;;;;;;;;;;;20.80;73.10;;;;;;4988673;28;924;-68
2023/06/25 07:35:05;;;;;;;;;;;20.80;73.10;;;;;;4985772;28;1022;-68
2023/06/25 07:37:31;;;;;;;;;;;20.80;73.10;;;;;;4982855;28;1111;-68
2023/06/25 07:39:56;;;;;;;;;;;20.80;73.10;;;;;;4983760;28;2128;-68
2023/06/25 07:42:22;;;;;;;;;;;20.80;73.10;;;;;;4989234;28;1970;-68
2023/06/25 07:44:47;;;;;;;;;;;20.80;73.10;;;;;;4987006;28;1310;-68
2023/06/25 07:47:12;;;;;;;;;;;20.80;73.10;;;;;;4989165;28;985;-67
2023/06/25 07:49:38;;;;;;;;;;;20.80;73.10;;;;;;4985759;28;1261;-68
2023/06/25 07:52:04;;;;;;;;;;;20.80;73.10;;;;;;4985165;28;1994;-67
2023/06/25 07:54:29;;;;;;;;;;;20.80;73.10;;;;;;4985606;28;875;-68
2023/06/25 07:56:54;;;;;;;;;;;20.80;73.10;;;;;;4987459;28;911;-68
2023/06/25 07:59:20;;;;;;;;;;;20.80;73.10;;;;;;4985231;28;1267;-68
2023/06/25 08:01:45;;;;;;;;;;;20.80;73.20;;;;;;4979379;28;857;-68
2023/06/25 08:04:11;;;;;;;;;;;20.80;73.10;;;;;;4981580;28;1890;-68
2023/06/25 08:06:36;;;;;;;;;;;20.80;73.10;;;;;;4982962;28;805;-68
2023/06/25 08:09:03;;;;;;;;;;;20.80;73.10;;;;;;4982469;28;1251;-68
2023/06/25 08:11:28;;;;;;;;;;;20.80;73.10;;;;;;4989910;28;867;-67
2023/06/25 08:13:54;;;;;;;;;;;20.80;73.20;;;;;;4989612;28;1485;-67
2023/06/25 08:16:19;;;;;;;;;;;20.80;73.10;;;;;;4985296;28;1243;-68
2023/06/25 08:18:45;;;;;;;;;;;20.80;73.20;;;;;;4988224;28;1249;-67
2023/06/25 08:21:10;;;;;;;;;;;20.80;73.10;;;;;;4982616;28;799;-67
2023/06/25 08:23:36;;;;;;;;;;;20.80;73.10;;;;;;4986150;28;1899;-67
2023/06/25 08:26:02;;;;;;;;;;;20.80;73.20;;;;;;4982915;28;1003;-68
2023/06/25 08:28:28;;;;;;;;;;;20.80;73.10;;;;;;4985055;28;1718;-66
2023/06/25 08:30:53;;;;;;;;;;;20.80;73.10;;;;;;4985586;28;1018;-67
2023/06/25 08:33:19;;;;;;;;;;;20.80;73.20;;;;;;4986161;28;999;-67
2023/06/25 08:35:44;;;;;;;;;;;20.80;73.10;;;;;;4981033;28;930;-67
2023/06/25 08:38:10;;;;;;;;;;;20.80;73.20;;;;;;4980565;28;856;-67
2023/06/25 08:40:38;;;;;;;;;;;20.80;73.20;;;;;;4983398;28;1346;-68
2023/06/25 08:43:04;;;;;;;;;;;20.80;73.20;;;;;;4982609;28;1931;-67
2023/06/25 08:45:29;;;;;;;;;;;20.80;73.10;;;;;;4990055;28;1269;-67
2023/06/25 08:47:55;;;;;;;;;;;20.80;73.20;;;;;;4988846;28;816;-68
2023/06/25 08:50:21;;;;;;;;;;;20.80;73.20;;;;;;4984058;28;1393;-68
2023/06/25 08:52:46;;;;;;;;;;;20.80;73.10;;;;;;4978236;28;816;-67
2023/06/25 08:55:12;;;;;;;;;;;20.80;73.20;;;;;;4984834;28;921;-68
2023/06/25 08:57:37;;;;;;;;;;;20.80;73.20;;;;;;4986420;28;892;-68
2023/06/25 09:00:04;;;;;;;;;;;20.80;73.20;;;;;;4977595;28;1249;-67
2023/06/25 09:02:30;;;;;;;;;;;20.80;73.20;;;;;;4988059;28;1938;-67
2023/06/25 09:05:05;;;;;;;;;;;20.80;73.20;;;;;;4984173;28;1493;-67
2023/06/25 09:07:32;;;;;;;;;;;20.80;73.20;;;;;;4992520;28;1781;-68
2023/06/25 09:09:57;;;;;;;;;;;20.80;73.20;;;;;;4989021;28;1228;-68
2023/06/25 09:12:26;;;;;;;;;;;20.80;73.20;;;;;;4990001;28;876;-68
2023/06/25 09:14:51;;;;;;;;;;;20.80;73.90;;;;;;4982974;28;2253;-68
2023/06/25 09:17:22;;;;;;;;;;;20.80;73.20;;;;;;4984087;28;1377;-68
2023/06/25 09:19:48;;;;;;;;;;;20.80;73.20;;;;;;4985332;28;2029;-68
2023/06/25 09:22:13;;;;;;;;;;;20.80;73.20;;;;;;4984191;28;1899;-68
2023/06/25 09:24:42;;;;;;;;;;;20.80;73.20;;;;;;4981923;28;1352;-67
2023/06/25 09:27:09;;;;;;;;;;;20.80;73.20;;;;;;4984631;28;1353;-67
2023/06/25 09:29:34;;;;;;;;;;;20.80;73.20;;;;;;4984237;28;1328;-68
2023/06/25 09:32:05;;;;;;;;;;;20.80;73.20;;;;;;4987060;28;820;-68
2023/06/25 09:34:30;;;;;;;;;;;20.80;73.20;;;;;;4982579;28;1610;-68
2023/06/25 09:36:56;;;;;;;;;;;20.80;73.20;;;;;;4983046;28;986;-68
2023/06/25 09:39:21;;;;;;;;;;;20.80;73.20;;;;;;4980923;28;1351;-68
2023/06/25 09:41:47;;;;;;;;;;;20.80;73.20;;;;;;4986956;28;2067;-68
2023/06/25 09:44:12;;;;;;;;;;;20.80;73.20;;;;;;4980535;28;1972;-67
2023/06/25 09:46:38;;;;;;;;;;;20.80;73.30;;;;;;4987572;28;1207;-67
2023/06/25 09:49:04;;;;;;;;;;;20.80;73.20;;;;;;4987557;28;1304;-67
2023/06/25 09:51:33;;;;;;;;;;;20.80;73.30;;;;;;4987718;28;876;-67
2023/06/25 09:54:01;;;;;;;;;;;20.80;73.20;;;;;;4989535;28;833;-67
2023/06/25 09:56:27;;;;;;;;;;;20.80;73.20;;;;;;4989267;28;906;-68
2023/06/25 09:58:52;;;;;;;;;;;20.80;73.20;;;;;;4984498;28;1261;-67
2023/06/25 10:01:18;;;;;;;;;;;20.80;73.30;;;;;;4986601;28;902;-67
2023/06/25 10:03:43;;;;;;;;;;;20.80;73.20;;;;;;4975238;28;1902;-68
2023/06/25 10:06:08;;;;;;;;;;;20.80;73.20;;;;;;4990532;28;1167;-67
2023/06/25 10:08:36;;;;;;;;;;;20.80;73.20;;;;;;4985247;28;1271;-67
2023/06/25 10:11:03;;;;;;;;;;;20.80;73.20;;;;;;4988511;28;876;-67
2023/06/25 10:13:29;;;;;;;;;;;20.80;73.20;;;;;;4986616;28;900;-67
2023/06/25 10:15:58;;;;;;;;;;;20.80;73.30;;;;;;4988934;28;865;-67
2023/06/25 10:18:23;;;;;;;;;;;20.80;73.20;;;;;;4990223;28;1169;-68
2023/06/25 10:20:49;;;;;;;;;;;20.80;73.20;;;;;;4990256;28;1223;-68
2023/06/25 10:23:19;;;;;;;;;;;20.80;73.20;;;;;;4984511;28;1945;-68
2023/06/25 10:25:52;;;;;;;;;;;20.80;73.20;;;;;;4983941;28;946;-68
2023/06/25 10:28:17;;;;;;;;;;;20.80;73.30;;;;;;4983126;28;1335;-68
2023/06/25 10:30:47;;;;;;;;;;;20.80;73.30;;;;;;4979986;28;1248;-68
2023/06/25 10:33:16;;;;;;;;;;;20.80;73.20;;;;;;4987650;28;981;-68
2023/06/25 10:35:41;;;;;;;;;;;20.80;73.30;;;;;;4987229;28;2132;-69
2023/06/25 10:38:07;;;;;;;;;;;20.80;73.20;;;;;;4985266;28;1001;-69
2023/06/25 10:40:33;;;;;;;;;;;20.80;73.20;;;;;;4984405;28;1280;-69
2023/06/25 10:42:59;;;;;;;;;;;20.80;73.20;;;;;;4987749;28;1903;-68
2023/06/25 10:45:24;;;;;;;;;;;20.80;73.20;;;;;;4986275;28;915;-68
2023/06/25 10:47:59;;;;;;;;;;;20.80;73.30;;;;;;4990432;28;1650;-68
2023/06/25 10:50:24;;;;;;;;;;;20.80;73.30;;;;;;4982951;28;1310;-68
2023/06/25 10:52:50;;;;;;;;;;;20.80;73.20;;;;;;4990134;28;1146;-68
2023/06/25 10:55:15;;;;;;;;;;;20.80;73.20;;;;;;4985638;28;1011;-68
2023/06/25 10:57:42;;;;;;;;;;;20.80;73.20;;;;;;4986992;28;808;-68
2023/06/25 11:00:08;;;;;;;;;;;20.80;73.20;;;;;;4987776;28;1257;-68
2023/06/25 11:02:34;;;;;;;;;;;20.80;73.20;;;;;;4987632;28;1902;-68
2023/06/25 11:05:01;;;;;;;;;;;20.80;73.20;;;;;;4988350;28;913;-68
2023/06/25 11:07:26;;;;;;;;;;;20.80;73.20;;;;;;4985339;28;915;-68
2023/06/25 11:09:55;;;;;;;;;;;20.80;73.30;;;;;;4985009;28;1260;-68
2023/06/25 11:12:20;;;;;;;;;;;20.80;73.30;;;;;;4985773;28;834;-68
2023/06/25 11:14:46;;;;;;;;;;;20.80;73.20;;;;;;4997546;28;1635;-68
2023/06/25 11:17:15;;;;;;;;;;;20.80;73.30;;;;;;4989431;28;1427;-68
2023/06/25 11:19:40;;;;;;;;;;;20.80;73.30;;;;;;4990271;28;1304;-68
2023/06/25 11:22:09;;;;;;;;;;;20.80;73.30;;;;;;4990479;28;1415;-68
2023/06/25 11:24:37;;;;;;;;;;;20.80;73.20;;;;;;4988891;28;1938;-67
2023/06/25 11:27:03;;;;;;;;;;;20.80;73.30;;;;;;4986183;28;1407;-67
2023/06/25 11:29:39;;;;;;;;;;;20.90;73.40;;;;;;4990539;28;1409;-66
2023/06/25 11:32:13;;;;;;;;;;;20.90;74.00;;;;;;4987622;28;1345;-67
2023/06/25 11:34:45;;;;;;;;;;;21.00;74.50;;;;;;4988144;28;1493;-67
2023/06/25 11:37:11;;;;;;;;;;;21.00;73.90;;;;;;5000976;28;1425;-66
2023/06/25 11:39:43;;;;;;;;;;;21.10;73.50;;;;;;4985791;28;1337;-66
2023/06/25 11:42:12;;;;;;;;;;;21.10;73.30;;;;;;4983719;28;1697;-67
2023/06/25 11:44:37;;;;;;;;;;;21.10;73.00;;;;;;4985600;28;1953;-66
2023/06/25 11:47:03;;;;;;;;;;;21.10;73.10;;;;;;4988074;28;1350;-66
2023/06/25 11:49:28;;;;;;;;;;;21.10;73.40;;;;;;4988349;28;1261;-67
2023/06/25 11:51:54;;;;;;;;;;;21.20;74.20;;;;;;4985579;28;895;-66
2023/06/25 11:54:19;;;;;;;;;;;21.20;74.40;;;;;;4987382;28;905;-67
2023/06/25 11:56:45;;;;;;;;;;;21.20;73.70;;;;;;4980547;28;792;-66
2023/06/25 11:59:10;;;;;;;;;;;21.20;73.60;;;;;;4988413;28;1279;-67
2023/06/25 12:01:36;;;;;;;;;;;21.30;73.60;;;;;;4984603;28;915;-66
2023/06/25 12:04:01;;;;;;;;;;;21.30;73.70;;;;;;4986476;28;1890;-66
2023/06/25 12:06:27;;;;;;;;;;;21.30;73.80;;;;;;4988247;28;1433;-66
2023/06/25 12:08:52;;;;;;;;;;;21.30;73.70;;;;;;4986950;28;1325;-67
2023/06/25 12:11:18;;;;;;;;;;;21.30;73.70;;;;;;4986139;28;1621;-67
2023/06/25 12:13:43;;;;;;;;;;;21.30;73.80;;;;;;4986296;28;1300;-66
2023/06/25 12:16:09;;;;;;;;;;;21.30;73.90;;;;;;4987898;28;1372;-66
2023/06/25 12:18:34;;;;;;;;;;;21.30;74.20;;;;;;4989705;28;1350;-66
2023/06/25 12:21:00;;;;;;;;;;;21.30;74.70;;;;;;4983552;28;1545;-68
2023/06/25 12:23:25;;;;;;;;;;;21.30;74.70;;;;;;4985792;28;1965;-66
2023/06/25 12:25:51;;;;;;;;;;;21.30;74.70;;;;;;4987221;28;850;-66
2023/06/25 12:28:16;;;;;;;;;;;21.30;74.70;;;;;;4983897;28;998;-66
2023/06/25 12:30:42;;;;;;;;;;;21.30;74.50;;;;;;4983952;28;1374;-66
2023/06/25 12:33:07;;;;;;;;;;;21.30;74.40;;;;;;4985824;28;927;-66
2023/06/25 12:35:33;;;;;;;;;;;21.30;74.50;;;;;;4987023;28;958;-66
2023/06/25 12:37:58;;;;;;;;;;;21.30;74.60;;;;;;4986085;28;963;-67
2023/06/25 12:40:24;;;;;;;;;;;21.30;74.50;;;;;;4988039;28;1244;-67
2023/06/25 12:42:49;;;;;;;;;;;21.30;74.10;;;;;;4985852;28;1911;-67
2023/06/25 12:45:14;;;;;;;;;;;21.40;74.00;;;;;;4984991;28;918;-67
2023/06/25 12:47:40;;;;;;;;;;;21.40;74.00;;;;;;4990153;28;904;-67
2023/06/25 12:50:06;;;;;;;;;;;21.40;74.20;;;;;;4983265;28;1976;-66
2023/06/25 12:52:31;;;;;;;;;;;21.40;74.20;;;;;;4982300;28;1281;-66
2023/06/25 12:54:57;;;;;;;;;;;21.40;74.10;;;;;;4985179;28;1417;-67
2023/06/25 12:57:24;;;;;;;;;;;21.40;74.10;;;;;;4979533;28;1652;-66
2023/06/25 12:59:49;;;;;;;;;;;21.40;74.30;;;;;;4983618;28;1296;-67
2023/06/25 13:02:15;;;;;;;;;;;21.40;74.40;;;;;;4988173;28;820;-67
2023/06/25 13:04:40;;;;;;;;;;;21.40;74.30;;;;;;4989548;28;1903;-67
2023/06/25 13:07:06;;;;;;;;;;;21.40;74.30;;;;;;4985896;28;1010;-67
2023/06/25 13:09:32;;;;;;;;;;;21.40;74.40;;;;;;4985635;28;1354;-67
2023/06/25 13:11:58;;;;;;;;;;;21.40;74.40;;;;;;4985929;28;848;-67
2023/06/25 13:14:24;;;;;;;;;;;21.40;74.50;;;;;;4998450;28;1018;-67
2023/06/25 13:16:49;;;;;;;;;;;21.40;74.80;;;;;;4984665;28;832;-66
2023/06/25 13:19:15;;;;;;;;;;;21.40;74.80;;;;;;4983922;28;1265;-67
2023/06/25 13:21:40;;;;;;;;;;;21.40;74.90;;;;;;4983935;28;912;-67
2023/06/25 13:24:06;;;;;;;;;;;21.40;74.80;;;;;;4986097;28;1902;-67
2023/06/25 13:26:31;;;;;;;;;;;21.40;74.70;;;;;;4983019;28;870;-67
2023/06/25 13:28:57;;;;;;;;;;;21.40;74.60;;;;;;4984858;28;1395;-67
2023/06/25 13:31:22;;;;;;;;;;;21.40;74.50;;;;;;4985164;28;832;-67
2023/06/25 13:33:48;;;;;;;;;;;21.50;74.40;;;;;;4985096;28;1156;-67
2023/06/25 13:36:13;;;;;;;;;;;21.50;74.40;;;;;;4981868;28;904;-67
2023/06/25 13:38:40;;;;;;;;;;;21.50;74.20;;;;;;4986978;28;1300;-67
2023/06/25 13:41:05;;;;;;;;;;;21.50;74.30;;;;;;4985686;28;939;-67
2023/06/25 13:43:34;;;;;;;;;;;21.40;74.40;;;;;;4986903;28;1966;-67
2023/06/25 13:46:00;;;;;;;;;;;21.50;74.40;;;;;;4984531;28;849;-67
2023/06/25 13:48:26;;;;;;;;;;;21.50;74.50;;;;;;4983465;28;881;-67
2023/06/25 13:50:51;;;;;;;;;;;21.50;74.80;;;;;;4987018;28;1003;-67
2023/06/25 13:53:17;;;;;;;;;;;21.50;74.80;;;;;;4986408;28;828;-67
2023/06/25 13:55:42;;;;;;;;;;;21.50;75.00;;;;;;4984701;28;839;-67
2023/06/25 13:58:08;;;;;;;;;;;21.40;75.00;;;;;;4985827;28;813;-67
2023/06/25 14:00:33;;;;;;;;;;;21.50;74.90;;;;;;4984766;28;1253;-67
2023/06/25 14:03:01;;;;;;;;;;;21.50;74.90;;;;;;4987530;28;1953;-67
2023/06/25 14:05:27;;;;;;;;;;;21.50;75.00;;;;;;4980386;28;860;-67
2023/06/25 14:07:52;;;;;;;;;;;21.50;75.10;;;;;;4982263;28;885;-67
2023/06/25 14:10:18;;;;;;;;;;;21.50;75.00;;;;;;4984203;28;1344;-67
2023/06/25 14:12:43;;;;;;;;;;;21.50;74.90;;;;;;4979513;28;1010;-67
2023/06/25 14:15:09;;;;;;;;;;;21.50;74.80;;;;;;4983194;28;840;-67
2023/06/25 14:17:34;;;;;;;;;;;21.50;74.90;;;;;;4988267;28;809;-66
2023/06/25 14:20:00;;;;;;;;;;;21.50;75.00;;;;;;4986554;28;1362;-67
2023/06/25 14:22:25;;;;;;;;;;;21.50;74.90;;;;;;4987261;28;1898;-67
2023/06/25 14:24:51;;;;;;;;;;;21.50;74.90;;;;;;4985086;28;1003;-68
2023/06/25 14:27:16;;;;;;;;;;;21.50;74.80;;;;;;4987692;28;1437;-67